createdAt,value
2019-01-22T00:02:53.786Z,95375.19
2019-01-22T00:05:22.855Z,95375.09
2019-01-22T00:07:55.292Z,95371.82
2019-01-22T00:10:24.450Z,95372.10
2019-01-22T00:12:53.515Z,95375.47
2019-01-22T00:15:22.577Z,95373.20
2019-01-22T00:17:51.636Z,95368.05
2019-01-22T00:20:26.139Z,95365.14
2019-01-22T00:22:55.203Z,95361.45
2019-01-22T00:28:10.388Z,95356.44
2019-01-22T00:30:43.484Z,95357.64
2019-01-22T00:33:16.187Z,95351.63
2019-01-22T00:35:45.247Z,95346.17
2019-01-22T00:38:14.307Z,95351.60
2019-01-22T00:40:45.294Z,95345.36
2019-01-22T00:45:51.930Z,95344.32
2019-01-22T00:48:21.716Z,95339.69
2019-01-22T00:50:50.937Z,95330.28
2019-01-22T00:53:21.910Z,95332.03
2019-01-22T00:55:51.894Z,95327.58
2019-01-22T00:58:21.650Z,95328.97
2019-01-22T01:00:54.071Z,95325.38
2019-01-22T01:03:28.827Z,95322.07
2019-01-22T01:06:01.871Z,95318.98
2019-01-22T01:08:30.935Z,95326.24
2019-01-22T01:11:03.476Z,95319.67
2019-01-22T01:13:32.543Z,95311.30
2019-01-22T01:16:06.655Z,95314.60
2019-01-22T01:21:14.555Z,95308.91
2019-01-22T01:23:43.624Z,95303.77
2019-01-22T01:26:12.787Z,95301.66
2019-01-22T01:28:41.842Z,95297.13
2019-01-22T01:31:16.038Z,95291.81
2019-01-22T01:33:56.964Z,95286.95
2019-01-22T01:36:26.031Z,95285.34
2019-01-22T01:38:57.075Z,95275.67
2019-01-22T01:41:28.114Z,95267.78
2019-01-22T01:43:57.315Z,95259.44
2019-01-22T01:46:26.396Z,95255.69
2019-01-22T01:49:13.807Z,95249.69
2019-01-22T01:51:42.883Z,95247.44
2019-01-22T01:54:11.983Z,95244.33
2019-01-22T01:56:41.051Z,95243.47
2019-01-22T01:59:18.157Z,95239.78
2019-01-22T02:01:47.227Z,95241.91
2019-01-22T02:04:25.558Z,95242.39
2019-01-22T02:06:54.174Z,95238.96
2019-01-22T02:09:25.151Z,95242.38
2019-01-22T02:11:54.241Z,95236.72
2019-01-22T02:14:23.305Z,95234.45
2019-01-22T02:17:10.906Z,95228.26
2019-01-22T02:19:40.046Z,95223.82
2019-01-22T02:25:03.087Z,95211.52
2019-01-22T02:33:13.840Z,95209.42
2019-01-22T02:35:51.462Z,95213.74
2019-01-22T02:47:06.881Z,95190.41
2019-01-22T02:55:02.322Z,95172.68
2019-01-22T03:02:59.565Z,95159.02
2019-01-22T03:05:51.166Z,95156.61
2019-01-22T03:20:08.553Z,95153.81
2019-01-22T03:25:32.970Z,95153.63
2019-01-22T03:28:23.097Z,95148.02
2019-01-22T03:30:58.720Z,95144.60
2019-01-22T03:33:41.404Z,95140.63
2019-01-22T03:38:49.505Z,95135.19
2019-01-22T03:47:30.308Z,95136.75
2019-01-22T03:53:33.862Z,95133.79
2019-01-22T03:58:42.084Z,95136.36
2019-01-22T04:01:11.157Z,95132.64
2019-01-22T04:03:41.130Z,95130.55
2019-01-22T04:06:13.748Z,95127.90
2019-01-22T04:08:42.832Z,95132.57
2019-01-22T04:11:16.883Z,95120.45
2019-01-22T04:13:45.936Z,95122.27
2019-01-22T04:16:23.388Z,95118.19
2019-01-22T04:18:52.898Z,95114.70
2019-01-22T04:21:23.001Z,95108.61
2019-01-22T04:24:01.437Z,95107.06
2019-01-22T04:29:14.935Z,95104.11
2019-01-22T04:31:44.705Z,95102.02
2019-01-22T04:34:29.607Z,95098.98
2019-01-22T04:37:18.135Z,95094.22
2019-01-22T04:45:44.539Z,95082.48
2019-01-22T04:51:01.999Z,95073.50
2019-01-22T04:53:45.568Z,95072.83
2019-01-22T05:02:22.757Z,95059.89
2019-01-22T05:04:56.172Z,95051.78
2019-01-22T05:13:25.999Z,95042.69
2019-01-22T05:19:06.260Z,95032.86
2019-01-22T05:24:29.184Z,95027.00
2019-01-22T05:33:25.801Z,95028.59
2019-01-22T05:39:10.451Z,95030.92
2019-01-22T05:47:26.698Z,95028.94
2019-01-22T05:55:28.574Z,95027.08
2019-01-22T05:58:00.360Z,95024.89
2019-01-22T06:03:20.980Z,95027.58
2019-01-22T06:08:50.491Z,95026.05
2019-01-22T06:26:08.497Z,95027.17
2019-01-22T06:32:09.901Z,95026.53
2019-01-22T06:34:52.194Z,95022.11
2019-01-22T06:48:23.602Z,95008.72
2019-01-22T06:59:14.570Z,95005.82
2019-01-22T07:02:05.164Z,95005.98
2019-01-22T07:04:50.376Z,95009.09
2019-01-22T07:10:20.047Z,95009.11
2019-01-22T07:12:52.406Z,95001.02
2019-01-22T07:15:36.923Z,95005.48
2019-01-22T07:18:12.367Z,95004.53
2019-01-22T07:20:45.174Z,94997.21
2019-01-22T07:23:19.148Z,94995.28
2019-01-22T07:28:47.851Z,94991.94
2019-01-22T07:31:21.439Z,94987.13
2019-01-22T07:40:21.527Z,94988.42
2019-01-22T07:42:55.855Z,94979.91
2019-01-22T07:45:28.792Z,94974.91
2019-01-22T07:47:58.945Z,94974.28
2019-01-22T07:53:29.970Z,94976.30
2019-01-22T07:56:09.169Z,94964.85
2019-01-22T07:58:42.655Z,94964.88
2019-01-22T08:01:23.827Z,94967.19
2019-01-22T08:04:16.431Z,94965.64
2019-01-22T08:12:12.011Z,94958.55
2019-01-22T08:17:45.027Z,94961.06
2019-01-22T08:20:29.326Z,94960.50
2019-01-22T08:23:15.010Z,94960.38
2019-01-22T08:32:17.764Z,94954.98
2019-01-22T08:41:26.036Z,94947.61
2019-01-22T08:47:10.279Z,94938.73
2019-01-22T08:52:54.902Z,94940.31
2019-01-22T08:55:30.299Z,94938.48
2019-01-22T09:04:13.987Z,94932.92
2019-01-22T09:07:04.619Z,94928.19
2019-01-22T09:18:02.750Z,94915.40
2019-01-22T09:20:45.705Z,94920.58
2019-01-22T09:26:24.388Z,94920.47
2019-01-22T09:38:33.891Z,94914.17
2019-01-22T09:41:03.119Z,94916.23
2019-01-22T09:43:53.275Z,94909.47
2019-01-22T09:46:22.362Z,94905.39
2019-01-22T09:48:51.435Z,94904.73
2019-01-22T09:51:20.515Z,94902.08
2019-01-22T09:53:58.938Z,94900.23
2019-01-22T09:56:37.684Z,94897.91
2019-01-22T09:59:07.713Z,94893.82
2019-01-22T10:01:38.726Z,94889.59
2019-01-22T10:04:08.784Z,94888.97
2019-01-22T10:06:41.032Z,94880.71
2019-01-22T10:09:10.206Z,94875.91
2019-01-22T10:11:44.907Z,94866.13
2019-01-22T10:14:14.075Z,94861.09
2019-01-22T10:16:46.624Z,94860.45
2019-01-22T10:19:15.752Z,94853.09
2019-01-22T10:21:44.961Z,94846.53
2019-01-22T10:24:18.698Z,94846.38
2019-01-22T10:26:47.911Z,94841.07
2019-01-22T10:29:17.024Z,94840.03
2019-01-22T10:31:50.414Z,94832.52
2019-01-22T10:34:17.320Z,94827.06
2019-01-22T10:39:21.742Z,94816.77
2019-01-22T10:41:51.731Z,94813.64
2019-01-22T10:44:20.887Z,94803.20
2019-01-22T10:46:50.039Z,94801.09
2019-01-22T10:49:19.079Z,94803.69
2019-01-22T10:51:49.268Z,94802.37
2019-01-22T10:54:18.382Z,94799.02
2019-01-22T10:56:53.071Z,94789.33
2019-01-22T10:59:22.333Z,94790.09
2019-01-22T11:01:58.975Z,94785.27
2019-01-22T11:04:29.057Z,94778.71
2019-01-22T11:06:58.129Z,94771.57
2019-01-22T11:09:27.168Z,94763.83
2019-01-22T11:11:56.215Z,94758.63
2019-01-22T11:14:25.294Z,94753.38
2019-01-22T11:17:01.548Z,94750.02
2019-01-22T11:19:30.706Z,94746.07
2019-01-22T11:21:59.851Z,94743.56
2019-01-22T11:24:32.670Z,94739.38
2019-01-22T11:27:01.836Z,94732.40
2019-01-22T11:29:31.864Z,94734.67
2019-01-22T11:32:01.043Z,94722.94
2019-01-22T11:34:34.657Z,94723.88
2019-01-22T11:37:03.734Z,94726.58
2019-01-22T11:39:32.837Z,94718.11
2019-01-22T11:42:02.002Z,94713.16
2019-01-22T11:44:33.011Z,94713.14
2019-01-22T11:47:03.003Z,94709.33
2019-01-22T11:49:32.105Z,94695.92
2019-01-22T11:52:01.135Z,94688.55
2019-01-22T11:54:33.310Z,94684.02
2019-01-22T11:59:38.939Z,94679.61
2019-01-22T12:02:08.043Z,94669.55
2019-01-22T12:04:49.098Z,94660.44
2019-01-22T12:07:18.156Z,94654.52
2019-01-22T12:09:50.755Z,94648.78
2019-01-22T12:12:25.448Z,94644.84
2019-01-22T12:15:02.528Z,94642.31
2019-01-22T12:17:42.475Z,94638.66
2019-01-22T12:23:02.664Z,94627.80
2019-01-22T12:25:31.722Z,94624.89
2019-01-22T12:28:00.797Z,94615.57
2019-01-22T12:30:32.630Z,94608.80
2019-01-22T12:33:01.681Z,94611.89
2019-01-22T12:35:51.351Z,94595.82
2019-01-22T12:38:22.237Z,94590.77
2019-01-22T12:40:57.245Z,94581.75
2019-01-22T12:46:02.049Z,94575.45
2019-01-22T12:48:32.017Z,94566.33
2019-01-22T12:51:04.436Z,94566.34
2019-01-22T12:56:13.494Z,94555.02
2019-01-22T13:01:21.231Z,94545.78
2019-01-22T13:03:50.285Z,94542.97
2019-01-22T13:06:19.356Z,94537.27
2019-01-22T13:08:48.413Z,94534.91
2019-01-22T13:11:17.450Z,94533.48
2019-01-22T13:13:58.456Z,94529.82
2019-01-22T13:16:28.541Z,94522.49
2019-01-22T13:21:33.370Z,94508.92
2019-01-22T13:24:02.399Z,94502.86
2019-01-22T13:26:39.566Z,94500.16
2019-01-22T13:29:08.659Z,94491.35
2019-01-22T13:31:37.809Z,94493.57
2019-01-22T13:34:07.077Z,94485.78
2019-01-22T13:36:36.136Z,94486.55
2019-01-22T13:39:05.239Z,94480.25
2019-01-22T13:41:35.351Z,94471.66
2019-01-22T13:44:04.418Z,94463.80
2019-01-22T13:46:34.451Z,94455.94
2019-01-22T13:49:03.486Z,94457.83
2019-01-22T13:51:32.534Z,94455.77
2019-01-22T13:54:02.505Z,94453.51
2019-01-22T13:59:06.744Z,94443.41
2019-01-22T14:01:35.801Z,94439.34
2019-01-22T14:04:04.846Z,94433.15
2019-01-22T14:06:34.917Z,94435.45
2019-01-22T14:09:04.954Z,94429.87
2019-01-22T14:11:33.995Z,94424.72
2019-01-22T14:14:03.037Z,94426.75
2019-01-22T14:16:32.084Z,94423.41
2019-01-22T14:19:01.134Z,94418.33
2019-01-22T14:21:33.297Z,94417.91
2019-01-22T14:24:02.357Z,94412.11
2019-01-22T14:26:31.411Z,94399.36
2019-01-22T14:29:02.376Z,94395.61
2019-01-22T14:34:07.274Z,94394.16
2019-01-22T14:39:13.399Z,94380.20
2019-01-22T14:41:42.467Z,94379.47
2019-01-22T14:44:12.336Z,94371.96
2019-01-22T14:46:41.398Z,94374.73
2019-01-22T14:49:10.566Z,94374.88
2019-01-22T14:51:47.518Z,94366.59
2019-01-22T14:54:21.292Z,94365.02
2019-01-22T14:56:50.520Z,94365.20
2019-01-22T14:59:19.575Z,94361.58
2019-01-22T15:01:50.742Z,94353.46
2019-01-22T15:04:19.806Z,94351.34
2019-01-22T15:06:56.718Z,94350.95
2019-01-22T15:09:26.781Z,94348.28
2019-01-22T15:17:10.228Z,94341.24
2019-01-22T15:19:39.296Z,94340.70
2019-01-22T15:22:08.372Z,94337.74
2019-01-22T15:27:19.595Z,94336.54
2019-01-22T15:29:50.627Z,94332.73
2019-01-22T15:32:19.751Z,94327.78
2019-01-22T15:34:54.183Z,94321.97
2019-01-22T15:40:00.456Z,94313.03
2019-01-22T15:42:50.511Z,94308.94
2019-01-22T15:45:19.605Z,94311.73
2019-01-22T15:47:48.680Z,94309.52
2019-01-22T15:50:18.489Z,94305.78
2019-01-22T15:52:47.607Z,94301.02
2019-01-22T15:55:20.135Z,94296.84
2019-01-22T15:57:56.616Z,94299.91
2019-01-22T16:00:26.681Z,94300.86
2019-01-22T16:02:55.761Z,94300.02
2019-01-22T16:05:24.807Z,94298.31
2019-01-22T16:08:02.601Z,94296.38
2019-01-22T16:13:10.159Z,94283.64
2019-01-22T16:18:21.609Z,94278.61
2019-01-22T16:20:54.009Z,94273.50
2019-01-22T16:23:24.093Z,94266.48
2019-01-22T16:25:57.882Z,94267.94
2019-01-22T16:28:29.012Z,94261.81
2019-01-22T16:31:03.223Z,94256.55
2019-01-22T16:33:32.312Z,94255.27
2019-01-22T16:36:02.331Z,94250.91
2019-01-22T16:38:31.548Z,94243.89
2019-01-22T16:41:02.594Z,94237.71
2019-01-22T16:46:33.635Z,94238.34
2019-01-22T16:49:02.751Z,94235.55
2019-01-22T16:51:31.814Z,94230.89
2019-01-22T16:54:02.856Z,94225.73
2019-01-22T16:59:08.731Z,94218.23
2019-01-22T17:01:43.559Z,94215.72
2019-01-22T17:04:13.505Z,94216.60
2019-01-22T17:09:30.404Z,94208.18
2019-01-22T17:11:59.493Z,94209.33
2019-01-22T17:14:28.535Z,94218.11
2019-01-22T17:19:34.922Z,94217.41
2019-01-22T17:22:15.766Z,94208.26
2019-01-22T17:24:44.850Z,94205.84
2019-01-22T17:27:13.942Z,94209.00
2019-01-22T17:32:39.544Z,94212.44
2019-01-22T17:40:39.883Z,94212.59
2019-01-22T17:43:24.115Z,94207.91
2019-01-22T17:46:09.210Z,94208.14
2019-01-22T17:48:39.252Z,94201.72
2019-01-22T17:51:09.319Z,94202.98
2019-01-22T17:53:38.486Z,94207.64
2019-01-22T17:56:08.616Z,94205.17
2019-01-22T17:58:39.470Z,94209.95
2019-01-22T18:01:10.595Z,94200.78
2019-01-22T18:03:39.723Z,94193.66
2019-01-22T18:06:08.783Z,94182.77
2019-01-22T18:08:37.873Z,94180.59
2019-01-22T18:11:07.964Z,94183.73
2019-01-22T18:13:36.999Z,94179.05
2019-01-22T18:18:54.745Z,94173.47
2019-01-22T18:21:24.781Z,94175.16
2019-01-22T18:23:54.784Z,94167.94
2019-01-22T18:26:24.751Z,94162.92
2019-01-22T18:28:53.813Z,94162.92
2019-01-22T18:31:24.990Z,94157.64
2019-01-22T18:33:54.320Z,94159.80
2019-01-22T18:36:23.515Z,94154.58
2019-01-22T18:39:03.495Z,94154.76
2019-01-22T18:41:33.120Z,94155.73
2019-01-22T18:46:39.872Z,94149.67
2019-01-22T18:49:08.922Z,94148.12
2019-01-22T18:51:37.976Z,94149.78
2019-01-22T18:54:07.023Z,94144.55
2019-01-22T18:56:36.092Z,94147.95
2019-01-22T18:59:07.164Z,94153.95
2019-01-22T19:01:36.234Z,94149.20
2019-01-22T19:08:08.839Z,94138.69
2019-01-22T19:12:24.837Z,94134.75
2019-01-22T19:14:58.652Z,94132.14
2019-01-22T19:17:27.783Z,94130.03
2019-01-22T19:19:56.865Z,94130.42
2019-01-22T19:22:25.931Z,94127.33
2019-01-22T19:24:54.990Z,94130.58
2019-01-22T19:27:24.043Z,94123.02
2019-01-22T19:29:53.103Z,94123.80
2019-01-22T19:32:22.161Z,94119.04
2019-01-22T19:37:30.539Z,94113.88
2019-01-22T19:42:38.852Z,94111.11
2019-01-22T19:45:07.978Z,94100.50
2019-01-22T19:47:38.531Z,94102.73
2019-01-22T19:50:08.077Z,94099.20
2019-01-22T19:52:41.248Z,94093.31
2019-01-22T19:55:16.200Z,94097.20
2019-01-22T19:57:49.173Z,94090.58
2019-01-22T20:00:19.177Z,94089.54
2019-01-22T20:02:48.235Z,94088.07
2019-01-22T20:05:17.311Z,94084.27
2019-01-22T20:07:46.449Z,94078.25
2019-01-22T20:10:18.887Z,94077.77
2019-01-22T20:12:49.700Z,94075.91
2019-01-22T20:15:18.738Z,94076.80
2019-01-22T20:17:47.799Z,94076.72
2019-01-22T20:20:17.714Z,94071.96
2019-01-22T20:22:46.792Z,94068.92
2019-01-22T20:25:15.842Z,94065.78
2019-01-22T20:27:49.505Z,94064.33
2019-01-22T20:33:03.430Z,94065.92
2019-01-22T20:35:47.508Z,94062.30
2019-01-22T20:38:16.599Z,94056.91
2019-01-22T20:40:46.638Z,94062.74
2019-01-22T20:43:16.635Z,94058.83
2019-01-22T20:46:02.994Z,94049.49
2019-01-22T20:48:32.132Z,94049.81
2019-01-22T20:51:09.024Z,94045.61
2019-01-22T20:56:26.473Z,94041.29
2019-01-22T20:58:55.784Z,94045.73
2019-01-22T21:01:24.843Z,94040.20
2019-01-22T21:03:53.936Z,94039.16
2019-01-22T21:06:22.996Z,94037.20
2019-01-22T21:09:02.206Z,94034.15
2019-01-22T21:11:32.191Z,94032.03
2019-01-22T21:14:01.276Z,94028.36
2019-01-22T21:16:30.363Z,94024.84
2019-01-22T21:19:00.328Z,94021.42
2019-01-22T21:21:36.871Z,94019.05
2019-01-22T21:26:41.878Z,94018.28
2019-01-22T21:29:32.035Z,94016.84
2019-01-22T21:32:13.086Z,94009.99
2019-01-22T21:34:48.059Z,94008.96
2019-01-22T21:39:54.284Z,94005.56
2019-01-22T21:42:29.197Z,93998.88
2019-01-22T21:45:24.869Z,93994.79
2019-01-22T21:50:42.290Z,93996.81
2019-01-22T21:53:24.672Z,93994.78
2019-01-22T21:55:56.195Z,93990.85
2019-01-22T21:58:25.290Z,93998.26
2019-01-22T22:00:59.544Z,93998.50
2019-01-22T22:03:29.664Z,93997.64
2019-01-22T22:08:45.857Z,94000.15
2019-01-22T22:11:19.217Z,93993.43
2019-01-22T22:16:30.502Z,93988.88
2019-01-22T22:19:13.073Z,93986.77
2019-01-22T22:21:42.301Z,93987.96
2019-01-22T22:24:11.373Z,93988.05
2019-01-22T22:26:40.510Z,93984.73
2019-01-22T22:29:09.659Z,93979.26
2019-01-22T22:31:39.491Z,93976.19
2019-01-22T22:36:52.358Z,93974.98
2019-01-22T22:39:21.803Z,93967.14
2019-01-22T22:41:51.042Z,93965.44
2019-01-22T22:44:20.882Z,93971.97
2019-01-22T22:49:29.920Z,93961.13
2019-01-22T22:51:59.104Z,93960.41
2019-01-22T22:54:28.378Z,93950.93
2019-01-22T22:57:06.367Z,93953.67
2019-01-22T22:59:35.618Z,93949.70
2019-01-22T23:02:04.740Z,93944.45
2019-01-22T23:04:34.228Z,93943.70
2019-01-22T23:07:03.363Z,93933.38
2019-01-22T23:09:33.680Z,93938.36
2019-01-22T23:14:42.938Z,93925.61
2019-01-22T23:17:12.028Z,93928.78
2019-01-22T23:19:41.334Z,93920.18
2019-01-22T23:24:46.618Z,93915.66
2019-01-22T23:27:17.781Z,93909.27
2019-01-22T23:29:46.867Z,93911.87
2019-01-22T23:32:30.055Z,93907.28
2019-01-22T23:37:38.931Z,93902.48
2019-01-22T23:42:45.263Z,93893.42
2019-01-22T23:45:14.348Z,93893.92
2019-01-22T23:47:43.673Z,93891.43
2019-01-22T23:50:22.387Z,93889.98
2019-01-22T23:52:56.864Z,93890.00
2019-01-22T23:55:30.628Z,93886.52
2019-01-22T23:58:00.285Z,93888.05
